createdAt,value
2018-09-24T00:00:45.073Z,99170.05
2018-09-24T00:03:14.447Z,99167.77
2018-09-24T00:05:43.887Z,99171.69
2018-09-24T00:08:13.319Z,99182.00
2018-09-24T00:10:42.701Z,99185.77
2018-09-24T00:13:12.168Z,99187.05
2018-09-24T00:15:41.609Z,99189.19
2018-09-24T00:18:11.029Z,99197.20
2018-09-24T00:20:40.432Z,99203.40
2018-09-24T00:23:10.372Z,99208.14
2018-09-24T00:25:39.807Z,99205.38
2018-09-24T00:28:09.231Z,99210.45
2018-09-24T00:30:39.153Z,99214.17
2018-09-24T00:33:08.754Z,99211.56
2018-09-24T00:35:38.207Z,99221.98
2018-09-24T00:38:07.809Z,99227.86
2018-09-24T00:40:37.387Z,99218.88
2018-09-24T00:43:07.470Z,99229.00
2018-09-24T00:45:37.284Z,99232.27
2018-09-24T00:48:06.852Z,99240.94
2018-09-24T00:50:37.521Z,99248.11
2018-09-24T00:53:07.744Z,99248.55
2018-09-24T00:55:37.240Z,99254.66
2018-09-24T00:58:07.109Z,99250.03
2018-09-24T01:00:36.726Z,99260.64
2018-09-24T01:03:06.220Z,99262.72
2018-09-24T01:05:35.743Z,99282.81
2018-09-24T01:08:05.203Z,99288.55
2018-09-24T01:10:34.729Z,99289.86
2018-09-24T01:13:04.269Z,99297.73
2018-09-24T01:15:34.684Z,99292.16
2018-09-24T01:18:04.101Z,99296.91
2018-09-24T01:20:33.584Z,99305.09
2018-09-24T01:23:03.174Z,99303.62
2018-09-24T01:25:32.737Z,99317.34
2018-09-24T01:28:02.344Z,99321.92
2018-09-24T01:30:31.944Z,99320.11
2018-09-24T01:33:01.503Z,99325.05
2018-09-24T01:35:30.987Z,99324.03
2018-09-24T01:38:00.525Z,99324.54
2018-09-24T01:40:29.970Z,99330.39
2018-09-24T01:42:59.486Z,99328.91
2018-09-24T01:45:29.110Z,99328.41
2018-09-24T01:47:58.636Z,99332.33
2018-09-24T01:50:28.104Z,99336.70
2018-09-24T01:53:04.941Z,99334.73
2018-09-24T01:55:34.427Z,99338.20
2018-09-24T01:58:03.937Z,99339.63
2018-09-24T02:00:33.367Z,99344.98
2018-09-24T02:03:02.865Z,99348.11
2018-09-24T02:05:32.475Z,99352.00
2018-09-24T02:08:02.032Z,99357.92
2018-09-24T02:10:31.605Z,99353.92
2018-09-24T02:13:01.093Z,99357.16
2018-09-24T02:15:32.012Z,99371.33
2018-09-24T02:18:02.477Z,99375.25
2018-09-24T02:20:32.000Z,99365.72
2018-09-24T02:23:01.415Z,99378.79
2018-09-24T02:25:30.938Z,99380.36
2018-09-24T02:28:00.367Z,99378.70
2018-09-24T02:30:29.842Z,99383.58
2018-09-24T02:32:59.349Z,99387.76
2018-09-24T02:35:28.819Z,99394.29
2018-09-24T02:37:58.237Z,99392.05
2018-09-24T02:40:27.705Z,99404.47
2018-09-24T02:42:57.144Z,99416.64
2018-09-24T02:45:26.693Z,99415.54
2018-09-24T02:47:57.064Z,99413.66
2018-09-24T02:50:37.139Z,99415.44
2018-09-24T02:53:07.655Z,99421.35
2018-09-24T02:55:37.108Z,99416.95
2018-09-24T02:58:06.530Z,99420.66
2018-09-24T03:00:36.032Z,99430.44
2018-09-24T03:03:12.573Z,99433.88
2018-09-24T03:05:43.018Z,99438.27
2018-09-24T03:08:13.817Z,99446.34
2018-09-24T03:10:43.580Z,99442.27
2018-09-24T03:13:12.986Z,99443.44
2018-09-24T03:15:42.736Z,99448.66
2018-09-24T03:18:12.251Z,99451.70
2018-09-24T03:20:43.706Z,99458.58
2018-09-24T03:23:13.188Z,99466.53
2018-09-24T03:25:43.233Z,99462.62
2018-09-24T03:28:12.677Z,99464.56
2018-09-24T03:30:43.049Z,99471.38
2018-09-24T03:33:12.487Z,99472.05
2018-09-24T03:35:41.978Z,99472.34
2018-09-24T03:38:11.379Z,99474.82
2018-09-24T03:40:40.850Z,99480.87
2018-09-24T03:43:10.292Z,99483.61
2018-09-24T03:45:39.681Z,99487.91
2018-09-24T03:48:09.142Z,99491.83
2018-09-24T03:50:38.557Z,99495.33
2018-09-24T03:53:07.991Z,99492.13
2018-09-24T03:55:37.508Z,99495.15
2018-09-24T03:58:07.466Z,99503.96
2018-09-24T04:00:37.012Z,99506.22
2018-09-24T04:03:06.979Z,99511.09
2018-09-24T04:05:41.592Z,99515.98
2018-09-24T04:08:16.669Z,99526.48
2018-09-24T04:10:51.422Z,99533.45
2018-09-24T04:13:26.139Z,99531.44
2018-09-24T04:16:00.520Z,99537.48
2018-09-24T04:18:34.941Z,99543.11
2018-09-24T04:21:09.547Z,99553.34
2018-09-24T04:23:44.143Z,99553.28
2018-09-24T04:26:18.912Z,99558.97
2018-09-24T04:28:53.603Z,99555.69
2018-09-24T04:31:28.114Z,99565.09
2018-09-24T04:34:02.573Z,99575.45
2018-09-24T04:36:37.302Z,99582.84
2018-09-24T04:39:14.388Z,99585.06
2018-09-24T04:41:48.989Z,99593.55
2018-09-24T04:44:23.561Z,99599.40
2018-09-24T04:46:58.262Z,99607.14
2018-09-24T04:49:32.769Z,99607.63
2018-09-24T04:52:07.586Z,99602.68
2018-09-24T04:54:42.162Z,99601.81
2018-09-24T04:57:16.726Z,99612.63
2018-09-24T04:59:52.313Z,99616.81
2018-09-24T05:02:27.082Z,99623.93
2018-09-24T05:05:01.731Z,99630.25
2018-09-24T05:07:36.470Z,99644.58
2018-09-24T05:10:11.194Z,99644.02
2018-09-24T05:12:45.932Z,99646.27
2018-09-24T05:15:20.505Z,99652.74
2018-09-24T05:17:55.052Z,99658.70
2018-09-24T05:20:29.842Z,99657.78
2018-09-24T05:23:04.354Z,99663.20
2018-09-24T05:25:39.043Z,99662.99
2018-09-24T05:28:13.527Z,99666.04
2018-09-24T05:30:49.037Z,99667.46
2018-09-24T05:33:23.643Z,99670.75
2018-09-24T05:35:58.211Z,99669.21
2018-09-24T05:38:32.843Z,99679.88
2018-09-24T05:41:07.459Z,99673.83
2018-09-24T05:43:41.796Z,99683.28
2018-09-24T05:46:16.454Z,99691.72
2018-09-24T05:48:51.043Z,99695.27
2018-09-24T05:51:25.580Z,99700.48
2018-09-24T05:54:00.105Z,99709.01
2018-09-24T05:56:34.614Z,99706.61
2018-09-24T05:59:09.117Z,99707.44
2018-09-24T06:01:43.861Z,99705.52
2018-09-24T06:04:18.432Z,99702.64
2018-09-24T06:06:53.399Z,99709.42
2018-09-24T06:09:28.039Z,99715.61
2018-09-24T06:12:02.518Z,99715.73
2018-09-24T06:14:37.208Z,99730.36
2018-09-24T06:17:11.831Z,99728.14
2018-09-24T06:19:46.424Z,99730.89
2018-09-24T06:22:21.127Z,99734.80
2018-09-24T06:24:55.775Z,99740.11
2018-09-24T06:27:30.920Z,99742.71
2018-09-24T06:30:05.450Z,99748.05
2018-09-24T06:32:39.812Z,99753.20
2018-09-24T06:35:14.042Z,99756.66
2018-09-24T06:37:48.489Z,99761.59
2018-09-24T06:40:23.141Z,99772.94
2018-09-24T06:42:57.711Z,99766.00
2018-09-24T06:45:32.246Z,99770.36
2018-09-24T06:48:06.886Z,99775.78
2018-09-24T06:50:41.394Z,99784.52
2018-09-24T06:53:15.881Z,99782.33
2018-09-24T06:55:50.256Z,99785.73
2018-09-24T06:58:24.931Z,99790.33
2018-09-24T07:00:59.463Z,99790.77
2018-09-24T07:03:34.159Z,99793.11
2018-09-24T07:06:08.804Z,99790.83
2018-09-24T07:08:43.332Z,99793.88
2018-09-24T07:11:17.866Z,99793.96
2018-09-24T07:13:52.406Z,99802.20
2018-09-24T07:16:26.792Z,99804.53
2018-09-24T07:19:01.273Z,99815.05
2018-09-24T07:21:35.942Z,99808.14
2018-09-24T07:24:10.527Z,99813.56
2018-09-24T07:26:45.151Z,99820.53
2018-09-24T07:29:19.816Z,99826.50
2018-09-24T07:31:54.331Z,99823.63
2018-09-24T07:34:29.919Z,99830.31
2018-09-24T07:37:04.444Z,99839.05
2018-09-24T07:39:39.100Z,99846.94
2018-09-24T07:42:13.631Z,99844.88
2018-09-24T07:44:48.224Z,99848.87
2018-09-24T07:47:22.723Z,99847.38
2018-09-24T07:49:58.082Z,99858.25
2018-09-24T07:52:32.538Z,99858.66
2018-09-24T07:55:07.009Z,99865.27
2018-09-24T07:57:42.657Z,99871.98
2018-09-24T08:00:17.293Z,99872.70
2018-09-24T08:02:51.812Z,99874.28
2018-09-24T08:05:26.348Z,99888.65
2018-09-24T08:08:00.783Z,99883.22
2018-09-24T08:10:35.296Z,99885.91
2018-09-24T08:13:09.837Z,99890.70
2018-09-24T08:15:44.303Z,99889.34
2018-09-24T08:18:19.470Z,99900.20
2018-09-24T08:20:54.040Z,99886.09
2018-09-24T08:23:28.609Z,99896.37
2018-09-24T08:26:03.073Z,99899.67
2018-09-24T08:28:38.688Z,99887.69
2018-09-24T08:31:13.377Z,99891.96
2018-09-24T08:33:48.049Z,99894.30
2018-09-24T08:36:22.562Z,99892.70
2018-09-24T08:38:57.156Z,99897.52
2018-09-24T08:41:31.694Z,99899.98
2018-09-24T08:44:06.120Z,99903.36
2018-09-24T08:46:40.679Z,99901.48
2018-09-24T08:49:15.149Z,99899.05
2018-09-24T08:51:49.654Z,99887.53
2018-09-24T08:54:24.286Z,99895.86
2018-09-24T08:56:58.879Z,99897.83
2018-09-24T08:59:33.378Z,99905.55
2018-09-24T09:02:07.888Z,99911.30
2018-09-24T09:04:42.295Z,99908.68
2018-09-24T09:07:16.854Z,99906.95
2018-09-24T09:09:51.415Z,99910.11
2018-09-24T09:12:25.856Z,99919.75
2018-09-24T09:15:00.449Z,99907.73
2018-09-24T09:17:35.478Z,99911.05
2018-09-24T09:20:10.252Z,99915.84
2018-09-24T09:22:44.767Z,99910.05
2018-09-24T09:25:19.164Z,99919.45
2018-09-24T09:27:53.809Z,99914.81
2018-09-24T09:30:29.464Z,99914.56
2018-09-24T09:33:03.836Z,99915.59
2018-09-24T09:35:38.385Z,99917.31
2018-09-24T09:38:13.822Z,99920.64
2018-09-24T09:40:48.371Z,99915.98
2018-09-24T09:43:22.851Z,99919.57
2018-09-24T09:45:57.510Z,99925.02
2018-09-24T09:48:31.990Z,99929.70
2018-09-24T09:51:06.642Z,99928.09
2018-09-24T09:53:41.112Z,99931.19
2018-09-24T09:56:15.606Z,99914.98
2018-09-24T09:58:50.133Z,99921.23
2018-09-24T10:01:24.608Z,99914.91
2018-09-24T10:03:59.084Z,99926.27
2018-09-24T10:06:33.669Z,99927.63
2018-09-24T10:09:08.315Z,99932.56
2018-09-24T10:11:42.795Z,99925.63
2018-09-24T10:14:17.170Z,99928.29
2018-09-24T10:16:51.791Z,99934.75
2018-09-24T10:19:26.777Z,99929.73
2018-09-24T10:22:01.249Z,99931.61
2018-09-24T10:24:35.817Z,99932.13
2018-09-24T10:27:11.334Z,99931.52
2018-09-24T10:29:45.965Z,99921.38
2018-09-24T10:32:20.634Z,99925.32
2018-09-24T10:34:55.041Z,99931.39
2018-09-24T10:37:30.861Z,99917.18
2018-09-24T10:40:05.247Z,99921.80
2018-09-24T10:42:39.879Z,99916.08
2018-09-24T10:45:14.537Z,99912.66
2018-09-24T10:47:49.056Z,99915.28
2018-09-24T10:50:23.494Z,99921.57
2018-09-24T10:52:58.049Z,99921.95
2018-09-24T10:55:32.598Z,99919.98
2018-09-24T10:58:07.244Z,99918.22
2018-09-24T11:00:42.165Z,99928.44
2018-09-24T11:03:16.710Z,99921.73
2018-09-24T11:05:51.231Z,99919.73
2018-09-24T11:08:26.683Z,99929.61
2018-09-24T11:11:01.305Z,99926.16
2018-09-24T11:13:35.893Z,99929.69
2018-09-24T11:16:10.623Z,99930.06
2018-09-24T11:18:44.911Z,99923.36
2018-09-24T11:21:20.007Z,99919.63
2018-09-24T11:23:54.841Z,99923.14
2018-09-24T11:29:03.822Z,99917.28
2018-09-24T11:31:38.326Z,99917.28
2018-09-24T11:34:13.082Z,99912.86
2018-09-24T11:36:47.724Z,99920.77
2018-09-24T11:39:22.357Z,99919.25
2018-09-24T11:41:56.929Z,99917.56
2018-09-24T11:44:31.356Z,99917.38
2018-09-24T11:47:05.933Z,99909.23
2018-09-24T11:49:40.391Z,99911.07
2018-09-24T11:52:14.971Z,99911.28
2018-09-24T11:54:49.465Z,99908.33
2018-09-24T11:57:23.873Z,99909.48
2018-09-24T11:59:58.538Z,99911.95
2018-09-24T12:02:33.139Z,99915.91
2018-09-24T12:05:07.694Z,99915.23
2018-09-24T12:07:42.174Z,99913.45
2018-09-24T12:10:16.677Z,99912.48
2018-09-24T12:12:51.091Z,99906.73
2018-09-24T12:15:25.581Z,99906.40
2018-09-24T12:18:00.257Z,99908.84
2018-09-24T12:20:34.786Z,99905.09
2018-09-24T12:23:09.420Z,99899.84
2018-09-24T12:25:44.034Z,99893.28
2018-09-24T12:28:18.611Z,99896.09
2018-09-24T12:30:52.996Z,99893.97
2018-09-24T12:33:27.715Z,99895.93
2018-09-24T12:36:02.310Z,99895.26
2018-09-24T12:38:36.961Z,99893.12
2018-09-24T12:41:11.704Z,99889.02
2018-09-24T12:43:46.214Z,99885.73
2018-09-24T12:46:20.732Z,99889.36
2018-09-24T12:48:56.388Z,99895.62
2018-09-24T12:51:31.014Z,99887.22
2018-09-24T12:54:05.653Z,99878.36
2018-09-24T12:56:40.291Z,99878.52
2018-09-24T12:59:14.793Z,99877.85
2018-09-24T13:01:50.299Z,99883.78
2018-09-24T13:04:24.831Z,99880.66
2018-09-24T13:06:59.347Z,99877.21
2018-09-24T13:09:34.004Z,99872.93
2018-09-24T13:12:08.399Z,99865.03
2018-09-24T13:14:42.963Z,99872.77
2018-09-24T13:17:17.493Z,99872.77
2018-09-24T13:19:51.998Z,99874.58
2018-09-24T13:22:26.343Z,99869.81
2018-09-24T13:25:01.128Z,99867.48
2018-09-24T13:27:35.931Z,99870.30
2018-09-24T13:30:10.861Z,99867.67
2018-09-24T13:32:45.552Z,99873.77
2018-09-24T13:35:21.322Z,99875.57
2018-09-24T13:37:56.425Z,99872.45
2018-09-24T13:40:31.080Z,99890.05
2018-09-24T13:43:06.009Z,99887.57
2018-09-24T13:45:42.788Z,99885.58
2018-09-24T13:48:17.720Z,99892.83
2018-09-24T13:50:53.615Z,99887.81
2018-09-24T13:53:30.952Z,99883.06
2018-09-24T13:56:05.827Z,99879.93
2018-09-24T13:58:40.668Z,99888.30
2018-09-24T14:01:15.985Z,99880.59
2018-09-24T14:03:50.487Z,99888.21
2018-09-24T14:06:25.239Z,99887.64
2018-09-24T14:08:59.973Z,99882.00
2018-09-24T14:11:34.963Z,99876.53
2018-09-24T14:14:09.551Z,99880.10
2018-09-24T14:16:44.372Z,99871.05
2018-09-24T14:19:21.481Z,99876.03
2018-09-24T14:21:56.354Z,99876.33
2018-09-24T14:24:31.390Z,99879.14
2018-09-24T14:27:07.254Z,99875.01
2018-09-24T14:29:45.527Z,99879.52
2018-09-24T14:32:20.354Z,99882.57
2018-09-24T14:34:55.127Z,99875.65
2018-09-24T14:37:29.986Z,99877.63
2018-09-24T14:40:04.719Z,99879.33
2018-09-24T14:42:39.583Z,99883.59
2018-09-24T14:45:14.345Z,99874.16
2018-09-24T14:47:50.274Z,99869.77
2018-09-24T14:50:24.899Z,99863.88
2018-09-24T14:53:00.809Z,99870.05
2018-09-24T14:55:35.481Z,99861.94
2018-09-24T14:58:15.355Z,99857.09
2018-09-24T15:00:50.231Z,99859.44
2018-09-24T15:03:26.592Z,99858.14
2018-09-24T15:06:01.348Z,99858.88
2018-09-24T15:08:36.047Z,99867.54
2018-09-24T15:11:10.609Z,99862.15
2018-09-24T15:13:45.232Z,99863.14
2018-09-24T15:16:19.808Z,99862.39
2018-09-24T15:18:54.364Z,99865.66
2018-09-24T15:21:29.003Z,99864.67
2018-09-24T15:24:03.399Z,99861.68
2018-09-24T15:26:38.053Z,99859.18
2018-09-24T15:29:12.631Z,99864.77
2018-09-24T15:31:47.257Z,99859.62
2018-09-24T15:34:21.956Z,99861.27
2018-09-24T15:36:56.592Z,99862.45
2018-09-24T15:39:31.240Z,99858.82
2018-09-24T15:42:05.893Z,99855.44
2018-09-24T15:44:40.567Z,99856.76
2018-09-24T15:47:15.144Z,99860.62
2018-09-24T15:49:49.855Z,99859.89
2018-09-24T15:52:24.521Z,99859.58
2018-09-24T15:54:58.997Z,99856.95
2018-09-24T15:57:33.677Z,99866.36
2018-09-24T16:00:08.179Z,99867.02
2018-09-24T16:02:42.883Z,99868.03
2018-09-24T16:05:17.350Z,99870.55
2018-09-24T16:07:51.907Z,99864.79
2018-09-24T16:10:26.413Z,99874.68
2018-09-24T16:13:01.073Z,99871.28
2018-09-24T16:15:35.556Z,99871.78
2018-09-24T16:18:10.236Z,99875.60
2018-09-24T16:20:45.693Z,99877.75
2018-09-24T16:23:20.099Z,99885.02
2018-09-24T16:25:54.490Z,99887.33
2018-09-24T16:28:28.857Z,99888.36
2018-09-24T16:31:03.462Z,99898.55
2018-09-24T16:33:37.990Z,99899.86
2018-09-24T16:36:12.493Z,99906.60
2018-09-24T16:38:47.029Z,99913.70
2018-09-24T16:41:21.597Z,99913.38
2018-09-24T16:43:56.189Z,99918.67
2018-09-24T16:46:30.882Z,99920.48
2018-09-24T16:49:05.571Z,99921.45
2018-09-24T16:51:40.206Z,99926.91
2018-09-24T16:54:14.781Z,99928.22
2018-09-24T16:56:49.351Z,99933.17
2018-09-24T16:59:24.029Z,99935.47
2018-09-24T17:01:58.551Z,99947.80
2018-09-24T17:04:36.651Z,99944.13
2018-09-24T17:07:11.338Z,99951.03
2018-09-24T17:09:46.180Z,99947.25
2018-09-24T17:12:21.161Z,99954.64
2018-09-24T17:14:58.192Z,99954.49
2018-09-24T17:17:35.067Z,99959.06
2018-09-24T17:20:19.318Z,99953.14
2018-09-24T17:22:54.868Z,99962.99
2018-09-24T17:25:29.574Z,99962.63
2018-09-24T17:28:04.096Z,99960.67
2018-09-24T17:30:38.578Z,99964.27
2018-09-24T17:33:13.143Z,99963.77
2018-09-24T17:35:47.707Z,99973.26
2018-09-24T17:38:22.382Z,99973.26
2018-09-24T17:40:57.395Z,99982.78
2018-09-24T17:43:32.346Z,99980.81
2018-09-24T17:46:07.194Z,99984.41
2018-09-24T17:48:41.819Z,99986.23
2018-09-24T17:51:16.393Z,99981.77
2018-09-24T17:53:50.948Z,99986.00
2018-09-24T17:56:25.660Z,99988.48
2018-09-24T17:59:00.113Z,99987.81
2018-09-24T18:01:34.591Z,99988.76
2018-09-24T18:04:09.075Z,99993.98
2018-09-24T18:06:43.699Z,99995.45
2018-09-24T18:09:18.215Z,99998.22
2018-09-24T18:11:52.807Z,100007.93
2018-09-24T18:14:27.296Z,100005.79
2018-09-24T18:17:01.760Z,100006.45
2018-09-24T18:19:36.443Z,100008.73
2018-09-24T18:22:11.254Z,100013.64
2018-09-24T18:24:45.996Z,100020.52
2018-09-24T18:27:20.744Z,100027.72
2018-09-24T18:29:55.434Z,100036.87
2018-09-24T18:32:30.095Z,100026.93
2018-09-24T18:35:04.644Z,100030.87
2018-09-24T18:37:39.251Z,100036.44
2018-09-24T18:40:13.893Z,100042.96
2018-09-24T18:42:48.550Z,100035.39
2018-09-24T18:45:23.208Z,100036.70
2018-09-24T18:47:57.713Z,100043.58
2018-09-24T18:50:32.295Z,100047.48
2018-09-24T18:53:06.850Z,100045.65
2018-09-24T18:55:41.333Z,100054.22
2018-09-24T18:58:15.848Z,100062.05
2018-09-24T19:00:50.442Z,100055.97
2018-09-24T19:03:25.150Z,100062.98
2018-09-24T19:05:59.652Z,100062.80
2018-09-24T19:08:34.243Z,100070.28
2018-09-24T19:11:08.862Z,100071.59
2018-09-24T19:13:43.465Z,100072.69
2018-09-24T19:16:18.122Z,100065.61
2018-09-24T19:18:52.760Z,100070.05
2018-09-24T19:21:27.306Z,100071.80
2018-09-24T19:24:02.007Z,100080.77
2018-09-24T19:26:36.722Z,100086.62
2018-09-24T19:29:13.200Z,100089.38
2018-09-24T19:31:47.915Z,100099.47
2018-09-24T19:34:22.435Z,100100.41
2018-09-24T19:36:57.097Z,100103.09
2018-09-24T19:39:31.578Z,100099.89
2018-09-24T19:42:06.072Z,100102.70
2018-09-24T19:44:40.823Z,100108.34
2018-09-24T19:47:15.566Z,100104.00
2018-09-24T19:49:50.228Z,100105.84
2018-09-24T19:52:24.697Z,100108.52
2018-09-24T19:54:59.394Z,100115.02
2018-09-24T19:57:34.012Z,100119.17
2018-09-24T20:00:08.730Z,100118.09
2018-09-24T20:02:43.428Z,100123.83
2018-09-24T20:05:18.139Z,100125.08
2018-09-24T20:07:52.732Z,100120.89
2018-09-24T20:10:27.336Z,100123.92
2018-09-24T20:13:02.532Z,100125.16
2018-09-24T20:15:37.228Z,100125.72
2018-09-24T20:18:12.659Z,100123.39
2018-09-24T20:20:47.105Z,100118.48
2018-09-24T20:23:21.689Z,100121.73
2018-09-24T20:25:56.323Z,100127.73
2018-09-24T20:28:30.698Z,100129.37
2018-09-24T20:31:05.375Z,100132.27
2018-09-24T20:33:40.640Z,100132.55
2018-09-24T20:36:15.225Z,100126.60
2018-09-24T20:38:50.348Z,100125.25
2018-09-24T20:41:25.509Z,100132.03
2018-09-24T20:44:00.707Z,100128.19
2018-09-24T20:46:35.321Z,100130.33
2018-09-24T20:49:10.004Z,100133.25
2018-09-24T20:51:45.291Z,100132.84
2018-09-24T20:54:19.886Z,100137.62
2018-09-24T20:56:54.397Z,100143.40
2018-09-24T20:59:28.959Z,100137.81
2018-09-24T21:02:03.629Z,100141.88
2018-09-24T21:04:38.399Z,100146.55
2018-09-24T21:07:13.089Z,100146.19
2018-09-24T21:09:55.172Z,100150.62
2018-09-24T21:12:29.703Z,100154.42
2018-09-24T21:15:04.378Z,100156.11
2018-09-24T21:17:38.803Z,100160.89
2018-09-24T21:20:13.351Z,100161.89
2018-09-24T21:22:47.941Z,100168.69
2018-09-24T21:25:22.491Z,100167.33
2018-09-24T21:27:57.217Z,100172.34
2018-09-24T21:30:31.893Z,100168.80
2018-09-24T21:33:06.354Z,100164.83
2018-09-24T21:35:40.877Z,100167.20
2018-09-24T21:38:15.221Z,100170.31
2018-09-24T21:40:49.790Z,100171.73
2018-09-24T21:43:24.571Z,100174.70
2018-09-24T21:45:59.201Z,100182.30
2018-09-24T21:48:33.733Z,100191.27
2018-09-24T21:51:08.374Z,100187.81
2018-09-24T21:53:42.879Z,100183.84
2018-09-24T21:56:17.381Z,100180.08
2018-09-24T21:58:52.011Z,100193.13
2018-09-24T22:01:26.640Z,100195.41
2018-09-24T22:04:01.342Z,100194.91
2018-09-24T22:06:36.005Z,100193.70
2018-09-24T22:09:13.606Z,100198.45
2018-09-24T22:11:49.004Z,100201.10
2018-09-24T22:14:23.736Z,100193.81
2018-09-24T22:16:58.309Z,100197.86
2018-09-24T22:19:32.872Z,100201.30
2018-09-24T22:22:08.206Z,100205.44
2018-09-24T22:24:42.701Z,100208.19
2018-09-24T22:27:17.263Z,100210.21
2018-09-24T22:29:51.820Z,100205.95
2018-09-24T22:32:26.384Z,100205.88
2018-09-24T22:35:01.535Z,100209.53
2018-09-24T22:37:36.079Z,100214.17
2018-09-24T22:40:11.557Z,100224.95
2018-09-24T22:42:46.064Z,100225.55
2018-09-24T22:45:20.576Z,100225.19
2018-09-24T22:47:55.282Z,100233.73
2018-09-24T22:50:29.663Z,100233.86
2018-09-24T22:53:04.287Z,100231.72
2018-09-24T22:55:38.841Z,100232.31
2018-09-24T22:58:13.545Z,100242.86
2018-09-24T23:00:48.001Z,100228.77
2018-09-24T23:03:22.690Z,100236.79
2018-09-24T23:05:57.182Z,100233.13
2018-09-24T23:08:31.844Z,100228.98
2018-09-24T23:11:06.769Z,100224.95
2018-09-24T23:13:41.444Z,100220.42
2018-09-24T23:16:15.945Z,100225.52
2018-09-24T23:18:50.620Z,100225.52
2018-09-24T23:21:25.172Z,100226.70
2018-09-24T23:23:59.743Z,100223.03
2018-09-24T23:26:34.316Z,100222.67
2018-09-24T23:29:08.916Z,100226.45
2018-09-24T23:31:43.454Z,100212.83
2018-09-24T23:34:18.010Z,100219.24
2018-09-24T23:36:52.716Z,100221.59
2018-09-24T23:39:27.436Z,100219.19
2018-09-24T23:42:02.236Z,100222.19
2018-09-24T23:44:36.809Z,100221.95
2018-09-24T23:47:11.519Z,100222.19
2018-09-24T23:49:45.957Z,100231.17
2018-09-24T23:52:20.479Z,100230.57
2018-09-24T23:54:55.041Z,100230.20
2018-09-24T23:57:29.541Z,100236.11
